Bronx, NY

3:19 PM EST en Enero 25, 2015 (GMT -0500)
South Bronx | Change Station
CLOSE
Current Station
Estación meteorológica personal
Location: New York, NY
Altura: 36 ft
Estaciones meteorológicas cercanas
Aviso en curso: Blizzard Warning Aviso activo: Record Report

Alt 36 ft 40.81 °N, 73.91 °W | Updated 9 minutes ago

Muy nublado
Muy nublado
43.2 ° F
Sensación térmica 42 ° F
N
3.4
Viento Variable Viento desde Sur
Gusts 8.9 mph

Hoy
Alta -- | Baja -- ° F
--% Posibilidad de precipitaciones
Ayer
Alta -- | Baja -- ° F
Precip. -- pul
7:12 AM 5:04 PM
Creciente, 35% visible
Presión 29.80 pul
Visibilidad 10.0 Millas
Nubes Baja 4500 ft
Nubes dispersas 5500 ft
Muy nublado 18000 ft
Muy nublado 25000 ft
Vientos helados 42 ° F
Punto de rocío 19 ° F
Humedad 36%
Precipitaciones -999.00 pul
Espesor de la nieve No disponible.
UV 1 de una escala de 12
Polen .10 de una escala de 12
Calidad del aire No disponible.
Flu Activity No disponible.
METAR KLGA 251951Z 30009KT 10SM FEW045 SCT055 BKN180 BKN250 05/M08 A2980 RMK AO2 PRESRR SLP089 T00501083 $

More Conditions Fewer Conditions

Presión 29.80 pul
Visibilidad 10.0 Millas
Nubes Baja 4500 ft
Nubes dispersas 5500 ft
Muy nublado 18000 ft
Muy nublado 25000 ft
Vientos helados 42 ° F
Punto de rocío 19 ° F
Humedad 36%
Precipitaciones -999.00 pul
Espesor de la nieve No disponible.
UV 1 de una escala de 12
Polen .10 de una escala de 12
Calidad del aire No disponible.
Flu Activity No disponible.
METAR KLGA 251951Z 30009KT 10SM FEW045 SCT055 BKN180 BKN250 05/M08 A2980 RMK AO2 PRESRR SLP089 T00501083 $

More Conditions Fewer Conditions

10-Day Weather Forecast

Almanac

Astronomía

Jan. 25, 2015 Salida Puesta
Hora real
Crepúsculo civil
Crepúsculo náutico
Crepúsculo astronómico
Luna
Horas de luz
Horas de luz
Tomorrow will be .
, % of the Moon is Illuminated

Extremos de hoy

Máximos del estado Bajos del estado

Community

WunderPhotos

Upload Photos

1,790,035 ¡fotos cargadas!

WunderBlogs® & News

Nearby

Calidad del aire

  Calidad del aire Índice AQ Contaminante
Not available.

Grosos de nieve

Estación Profundido Altura

Actividad de terremotos

Ciudad Distance Mag. Tiempo y dato
Magnitud mínima muestra es 2,5.

Temperaturas de aguas costeras

Lugar Temperatura

Estaciones meteorológicas cercanas